Time;durP1;ratioP1;P1;durP2;ratioP2;P2;SDS_P1;SDS_P2;PMS_P1;PMS_P2;Temp;Humidity;BMP_temperature;BMP_pressure;BME280_temperature;BME280_humidity;BME280_pressure;Samples;Min_cycle;Max_cycle;Signal;HPM_P1;HPM_P2
2021/11/29 00:03:51;;;;;;;19.05;15.72;;;;;;;7.91;91.82;97802.41;1804831;78;22692;-67
2021/11/29 00:06:19;;;;;;;25.40;18.55;;;;;;;7.88;91.84;97803.83;1753452;80;21078;-67
2021/11/29 00:08:48;;;;;;;24.12;17.57;;;;;;;7.88;91.82;97789.47;1745837;82;21085;-67
2021/11/29 00:11:14;;;;;;;22.73;17.27;;;;;;;7.89;91.86;97778.34;1731088;82;21145;-67
2021/11/29 00:13:41;;;;;;;29.20;19.87;;;;;;;7.92;91.88;97778.29;1742889;82;21030;-67
2021/11/29 00:16:08;;;;;;;24.18;18.05;;;;;;;7.95;91.85;97765.48;1733229;82;21123;-67
2021/11/29 00:18:36;;;;;;;25.43;17.73;;;;;;;7.96;91.80;97763.84;1731128;82;21617;-67
2021/11/29 00:21:03;;;;;;;21.05;16.48;;;;;;;7.99;91.80;97763.23;1737024;81;21035;-67
2021/11/29 00:23:32;;;;;;;20.43;15.08;;;;;;;8.01;91.82;97773.20;1734913;82;21565;-67
2021/11/29 00:25:59;;;;;;;23.38;17.27;;;;;;;8.05;91.83;97766.63;1751256;80;21027;-67
2021/11/29 00:28:28;;;;;;;21.55;16.65;;;;;;;8.07;91.83;97763.08;1749773;81;20972;-67
2021/11/29 00:30:55;;;;;;;22.98;17.37;;;;;;;8.11;91.84;97764.63;1728368;81;21019;-67
2021/11/29 00:33:23;;;;;;;22.70;16.97;;;;;;;8.14;91.81;97763.47;1749931;82;21062;-67
2021/11/29 00:35:52;;;;;;;21.23;15.75;;;;;;;8.18;91.82;97753.63;1747399;80;21067;-67
2021/11/29 00:38:18;;;;;;;22.07;15.80;;;;;;;8.20;91.83;97750.05;1732855;82;21121;-67
2021/11/29 00:40:45;;;;;;;20.27;15.60;;;;;;;8.26;91.88;97742.59;1726615;82;21114;-66
2021/11/29 00:43:12;;;;;;;20.70;14.98;;;;;;;8.29;91.90;97733.34;1731134;82;21066;-67
2021/11/29 00:45:38;;;;;;;19.55;14.35;;;;;;;8.31;91.98;97721.66;1736419;82;21059;-67
2021/11/29 00:48:07;;;;;;;18.12;13.95;;;;;;;8.37;92.12;97720.42;1742240;82;21127;-68
2021/11/29 00:50:37;;;;;;;18.45;13.40;;;;;;;8.43;92.23;97719.19;1742036;80;21106;-68
2021/11/29 00:53:06;;;;;;;16.25;12.43;;;;;;;8.49;92.32;97716.63;1745308;82;21035;-67
2021/11/29 00:55:33;;;;;;;19.02;14.07;;;;;;;8.54;92.29;97714.33;1733824;82;21113;-67
2021/11/29 00:57:59;;;;;;;18.10;13.60;;;;;;;8.57;92.27;97723.23;1751055;82;21667;-68
2021/11/29 01:00:27;;;;;;;;;;;;;;;8.62;92.25;97722.29;1742734;80;21055;-67
2021/11/29 01:02:55;;;;;;;19.23;12.95;;;;;;;8.64;92.19;97714.66;1724608;82;20396;-67
2021/11/29 01:05:22;;;;;;;15.88;12.40;;;;;;;8.64;92.29;97706.53;1719984;82;21074;-67
2021/11/29 01:07:49;;;;;;;;;;;;;;;8.65;92.36;97706.20;1721248;82;21038;-67
2021/11/29 01:10:15;;;;;;;16.32;13.53;;;;;;;8.67;92.38;97705.91;1727697;82;20088;-68
2021/11/29 01:12:42;;;;;;;;;;;;;;;8.64;92.49;97701.91;1738616;82;21036;-68
2021/11/29 01:15:11;;;;;;;15.40;12.85;;;;;;;8.67;92.53;97698.58;1733394;81;20568;-67
2021/11/29 01:17:37;;;;;;;16.95;13.20;;;;;;;8.68;92.59;97696.67;1718121;82;21545;-67
2021/11/29 01:20:05;;;;;;;15.80;11.97;;;;;;;8.71;92.62;97696.86;1727002;82;21541;-68
2021/11/29 01:22:32;;;;;;;19.60;13.72;;;;;;;8.75;92.52;97695.09;1730807;82;21119;-67
2021/11/29 01:24:59;;;;;;;16.70;12.43;;;;;;;8.79;92.48;97684.43;1725539;82;21062;-68
2021/11/29 01:27:25;;;;;;;17.42;13.85;;;;;;;8.83;92.41;97686.78;1710598;84;21047;-67
2021/11/29 01:29:52;;;;;;;14.73;12.15;;;;;;;8.86;92.33;97678.82;1684390;84;21067;-67
2021/11/29 01:32:18;;;;;;;16.00;12.70;;;;;;;8.89;92.27;97676.06;1684028;85;21057;-68
2021/11/29 01:34:44;;;;;;;;;;;;;;;8.91;92.25;97673.28;1685466;85;21124;-68
2021/11/29 01:37:11;;;;;;;14.25;11.88;;;;;;;8.94;92.24;97672.66;1683161;85;20107;-68
2021/11/29 01:39:37;;;;;;;15.25;11.90;;;;;;;8.92;92.31;97672.72;1685052;84;21079;-67
2021/11/29 01:42:09;;;;;;;19.92;12.93;;;;;;;8.96;92.36;97657.42;1687118;84;21028;-68
2021/11/29 01:44:36;;;;;;;18.95;12.35;;;;;;;8.97;92.34;97650.87;1700395;84;21054;-68
2021/11/29 01:47:04;;;;;;;14.95;11.85;;;;;;;9.00;92.28;97636.12;1719279;82;21043;-67
2021/11/29 01:49:32;;;;;;;14.58;11.93;;;;;;;9.04;92.21;97636.30;1719185;82;21071;-67
2021/11/29 01:51:59;;;;;;;;;;;;;;;9.07;92.13;97630.23;1733293;82;21003;-67
2021/11/29 01:54:25;;;;;;;13.48;11.22;;;;;;;9.09;92.08;97629.94;1718512;82;20426;-67
2021/11/29 01:56:52;;;;;;;18.17;12.95;;;;;;;9.06;92.12;97626.50;1719867;82;21007;-68
2021/11/29 01:59:19;;;;;;;16.27;12.40;;;;;;;9.06;92.17;97622.42;1719261;82;21054;-67
2021/11/29 02:01:46;;;;;;;14.18;11.25;;;;;;;9.08;92.13;97618.83;1734416;82;21078;-68
2021/11/29 02:04:12;;;;;;;;;;;;;;;9.10;92.12;97617.98;1726666;82;21542;-68
2021/11/29 02:06:39;;;;;;;15.50;11.60;;;;;;;9.11;92.09;97623.08;1732423;82;20422;-67
2021/11/29 02:09:07;;;;;;;13.75;11.38;;;;;;;9.07;92.15;97612.59;1737350;81;21055;-67
2021/11/29 02:11:35;;;;;;;14.18;11.10;;;;;;;9.10;92.26;97600.34;1738001;82;21007;-67
2021/11/29 02:14:02;;;;;;;13.62;11.08;;;;;;;9.11;92.21;97593.77;1713763;82;21041;-67
2021/11/29 02:16:29;;;;;;;;;;;;;;;9.11;92.19;97592.41;1716951;82;21016;-68
2021/11/29 02:18:55;;;;;;;13.75;11.35;;;;;;;9.12;92.15;97593.47;1737787;82;20135;-66
2021/11/29 02:21:25;;;;;;;;;;;;;;;9.10;92.21;97590.84;1736578;81;21055;-67
2021/11/29 02:23:55;;;;;;;13.22;11.53;;;;;;;9.11;92.25;97589.15;1720350;82;20393;-67
2021/11/29 02:26:27;;;;;;;16.37;11.90;;;;;;;9.10;92.30;97588.12;1730041;81;21565;-67
2021/11/29 02:29:00;;;;;;;14.15;11.48;;;;;;;9.10;92.29;97580.78;1717962;82;21090;-67
2021/11/29 02:31:31;;;;;;;13.20;11.30;;;;;;;9.13;92.21;97577.98;1724149;82;21047;-67
2021/11/29 02:33:58;;;;;;;14.80;11.05;;;;;;;9.14;92.10;97577.66;1711851;82;21090;-67
2021/11/29 02:36:25;;;;;;;16.65;10.93;;;;;;;9.16;92.03;97572.73;1721254;82;21153;-67
2021/11/29 02:38:51;;;;;;;;;;;;;;;9.17;91.99;97570.27;1739731;82;21070;-66
2021/11/29 02:41:17;;;;;;;14.28;10.08;;;;;;;9.20;91.88;97567.47;1729110;81;20119;-67
2021/11/29 02:43:44;;;;;;;13.48;10.82;;;;;;;9.16;91.93;97562.42;1726224;82;21039;-67
2021/11/29 02:46:10;;;;;;;14.28;11.33;;;;;;;9.18;91.90;97554.75;1718057;82;21035;-66
2021/11/29 02:48:38;;;;;;;;;;;;;;;9.18;91.82;97556.11;1720552;82;21123;-67
2021/11/29 02:51:05;;;;;;;12.50;10.18;;;;;;;9.17;91.77;97551.27;1715188;82;20134;-67
2021/11/29 02:53:31;;;;;;;15.03;11.18;;;;;;;9.12;91.79;97559.55;1741141;82;21537;-66
2021/11/29 02:55:58;;;;;;;14.30;10.20;;;;;;;9.13;91.81;97546.22;1734196;81;21122;-67
2021/11/29 02:58:24;;;;;;;13.65;10.30;;;;;;;9.14;91.76;97555.17;1717953;82;21091;-67
2021/11/29 03:00:51;;;;;;;13.30;10.08;;;;;;;9.15;91.70;97543.98;1717580;82;21075;-67
2021/11/29 03:03:18;;;;;;;13.38;10.30;;;;;;;9.14;91.63;97536.94;1696957;83;21035;-67
2021/11/29 03:05:46;;;;;;;;;;;;;;;9.16;91.61;97531.22;1714559;82;21186;-67
2021/11/29 03:08:14;;;;;;;13.30;10.30;;;;;;;9.18;91.56;97535.20;1720660;82;20118;-67
2021/11/29 03:10:41;;;;;;;12.15;9.65;;;;;;;9.15;91.61;97526.89;1719362;82;21047;-68
2021/11/29 03:13:07;;;;;;;13.43;10.55;;;;;;;9.16;91.56;97522.52;1718032;82;21553;-67
2021/11/29 03:15:35;;;;;;;11.68;10.23;;;;;;;9.16;91.52;97513.56;1735051;81;21102;-67
2021/11/29 03:18:02;;;;;;;11.53;9.30;;;;;;;9.17;91.47;97506.48;1736241;82;21028;-67
2021/11/29 03:20:28;;;;;;;;;;;;;;;9.18;91.39;97506.70;1738656;81;21122;-67
2021/11/29 03:22:55;;;;;;;13.55;9.75;;;;;;;9.19;91.32;97502.88;1734250;82;20147;-66
2021/11/29 03:25:21;;;;;;;12.80;8.88;;;;;;;9.15;91.34;97486.98;1713281;82;21067;-66
2021/11/29 03:27:48;;;;;;;11.63;8.65;;;;;;;9.15;91.35;97491.60;1718055;83;21079;-67
2021/11/29 03:30:14;;;;;;;9.78;8.78;;;;;;;9.15;91.30;97484.81;1717952;82;21060;-66
2021/11/29 03:32:42;;;;;;;11.50;9.05;;;;;;;9.15;91.20;97477.48;1721571;82;21088;-67
2021/11/29 03:35:09;;;;;;;;;;;;;;;9.14;91.15;97475.88;1741436;81;21039;-66
2021/11/29 03:37:36;;;;;;;10.75;9.05;;;;;;;9.13;91.12;97470.77;1734453;82;20107;-67
2021/11/29 03:40:04;;;;;;;12.65;9.95;;;;;;;9.09;91.17;97468.45;1709426;82;21082;-68
2021/11/29 03:42:31;;;;;;;14.23;9.75;;;;;;;9.06;91.23;97465.82;1718088;82;21044;-67
2021/11/29 03:45:00;;;;;;;13.32;9.73;;;;;;;9.09;91.17;97474.68;1721897;82;21083;-67
2021/11/29 03:47:26;;;;;;;10.95;9.38;;;;;;;9.09;91.08;97469.25;1737975;82;21487;-67
2021/11/29 03:49:52;;;;;;;;;;;;;;;9.10;91.01;97478.20;1727295;82;21023;-66
2021/11/29 03:52:19;;;;;;;12.33;9.70;;;;;;;9.09;90.96;97469.25;1718336;82;20524;-67
2021/11/29 03:54:45;;;;;;;11.80;9.18;;;;;;;9.06;91.03;97465.02;1739433;81;21600;-67
2021/11/29 03:57:12;;;;;;;11.85;9.53;;;;;;;9.07;91.06;97462.55;1736574;82;21534;-67
2021/11/29 03:59:38;;;;;;;12.07;9.90;;;;;;;9.08;90.97;97471.72;1679486;84;21075;-67
2021/11/29 04:02:05;;;;;;;;;;;;;;;9.06;90.94;97471.25;1725096;82;21938;-67
2021/11/29 04:04:31;;;;;;;11.03;9.30;;;;;;;9.09;90.88;97460.31;1743055;81;20137;-67
2021/11/29 04:06:58;;;;;;;12.50;9.23;;;;;;;9.05;90.76;97457.42;1739038;82;21034;-67
2021/11/29 04:09:24;;;;;;;11.28;9.05;;;;;;;9.07;90.94;97445.69;1740587;81;21153;-67
2021/11/29 04:11:51;;;;;;;11.57;9.05;;;;;;;9.09;90.84;97435.33;1738793;82;21017;-67
2021/11/29 04:14:17;;;;;;;11.08;9.35;;;;;;;9.10;90.71;97423.36;1725398;82;21070;-67
2021/11/29 04:16:44;;;;;;;10.53;9.43;;;;;;;9.11;90.66;97422.78;1739056;82;20976;-66
2021/11/29 04:19:10;;;;;;;;;;;;;;;9.08;90.61;97412.02;1729091;82;21689;-67
2021/11/29 04:21:37;;;;;;;13.10;10.32;;;;;;;9.10;90.55;97417.94;1725645;82;20125;-67
2021/11/29 04:24:04;;;;;;;12.00;9.93;;;;;;;9.06;90.59;97418.33;1725649;83;21058;-66
2021/11/29 04:26:31;;;;;;;12.60;9.75;;;;;;;9.06;90.57;97410.73;1728962;82;21493;-67
2021/11/29 04:28:59;;;;;;;;;;;;;;;9.07;90.51;97419.13;1736375;82;21046;-67
2021/11/29 04:31:25;;;;;;;11.53;9.38;;;;;;;9.10;90.44;97420.65;1731980;82;20186;-66
2021/11/29 04:33:52;;;;;;;11.70;10.03;;;;;;;9.07;90.42;97421.26;1736831;82;21079;-67
2021/11/29 04:36:18;;;;;;;10.98;9.53;;;;;;;9.09;90.38;97409.55;1728699;81;21042;-66
2021/11/29 04:38:45;;;;;;;11.63;10.00;;;;;;;9.12;90.26;97409.45;1726237;82;21608;-67
2021/11/29 04:41:11;;;;;;;12.68;8.85;;;;;;;9.14;90.13;97409.95;1715477;82;21576;-67
2021/11/29 04:43:38;;;;;;;11.68;9.78;;;;;;;9.16;90.02;97398.21;1742557;82;20995;-67
2021/11/29 04:46:04;;;;;;;11.83;9.18;;;;;;;9.18;89.90;97407.63;1742480;81;21580;-67
2021/11/29 04:48:31;;;;;;;12.07;10.05;;;;;;;9.18;89.77;97405.46;1734607;82;21086;-67
2021/11/29 04:50:58;;;;;;;11.88;9.78;;;;;;;9.20;89.68;97397.81;1726020;82;21573;-66
2021/11/29 04:53:25;;;;;;;14.20;10.28;;;;;;;9.17;89.65;97389.76;1742836;82;21031;-67
2021/11/29 04:55:51;;;;;;;11.28;9.93;;;;;;;9.16;89.59;97397.66;1732310;81;21868;-67
2021/11/29 04:58:17;;;;;;;13.83;10.13;;;;;;;9.17;89.50;97392.47;1695403;85;21546;-66
2021/11/29 05:00:48;;;;;;;13.30;9.85;;;;;;;9.19;89.40;97389.42;1710542;82;21015;-66
2021/11/29 05:03:12;;;;;;;12.15;9.95;;;;;;;9.19;89.30;97390.78;1714577;83;21098;-67
2021/11/29 05:05:39;;;;;;;11.93;10.48;;;;;;;9.20;89.22;97388.31;1729896;82;21106;-66
2021/11/29 05:08:05;;;;;;;11.93;10.53;;;;;;;9.21;89.15;97400.78;1734354;82;21034;-66
2021/11/29 05:10:32;;;;;;;11.20;10.00;;;;;;;9.20;89.10;97393.19;1734247;82;21142;-66
2021/11/29 05:12:58;;;;;;;13.25;10.10;;;;;;;9.21;89.01;97393.41;1733376;81;21035;-66
2021/11/29 05:15:25;;;;;;;12.58;10.40;;;;;;;9.19;88.93;97383.44;1730496;81;21153;-67
2021/11/29 05:17:51;;;;;;;13.83;11.48;;;;;;;9.18;88.86;97384.55;1746317;82;21002;-67
2021/11/29 05:20:18;;;;;;;12.18;9.48;;;;;;;9.18;88.81;97381.03;1728534;82;21022;-67
2021/11/29 05:22:45;;;;;;;11.75;10.03;;;;;;;9.18;88.73;97369.63;1733191;82;21652;-67
2021/11/29 05:25:11;;;;;;;13.58;11.10;;;;;;;9.17;88.68;97358.55;1740371;81;21082;-66
2021/11/29 05:27:38;;;;;;;15.13;11.15;;;;;;;9.18;88.59;97362.03;1744867;81;21018;-67
2021/11/29 05:30:05;;;;;;;13.38;10.50;;;;;;;9.16;88.55;97363.73;1732693;82;21660;-67
2021/11/29 05:32:34;;;;;;;12.75;9.98;;;;;;;9.15;88.51;97367.55;1730849;82;21524;-67
2021/11/29 05:35:01;;;;;;;;;;;;;;;9.14;88.42;97365.95;1733330;83;21560;-67
2021/11/29 05:37:27;;;;;;;12.50;10.80;;;;;;;9.15;88.34;97369.46;1730234;82;20180;-66
2021/11/29 05:39:54;;;;;;;13.93;11.22;;;;;;;9.09;88.43;97371.55;1727304;82;21023;-67
2021/11/29 05:42:20;;;;;;;12.45;10.82;;;;;;;9.07;88.44;97372.41;1730958;82;21048;-67
2021/11/29 05:44:50;;;;;;;14.78;11.08;;;;;;;9.05;88.41;97369.23;1744638;81;21054;-66
2021/11/29 05:47:18;;;;;;;14.58;11.63;;;;;;;9.04;88.35;97377.13;1737332;82;21050;-66
2021/11/29 05:49:45;;;;;;;13.18;10.98;;;;;;;9.05;88.33;97376.56;1727743;81;21121;-67
2021/11/29 05:52:11;;;;;;;15.00;11.30;;;;;;;9.06;88.28;97375.46;1730768;83;20962;-67
2021/11/29 05:54:38;;;;;;;14.00;11.18;;;;;;;9.06;88.24;97376.81;1730897;83;21045;-65
2021/11/29 05:57:05;;;;;;;;;;;;;;;9.05;88.20;97382.00;1733103;82;20960;-67
2021/11/29 05:59:31;;;;;;;15.63;11.73;;;;;;;9.04;88.19;97376.31;1732647;82;20404;-66
2021/11/29 06:01:57;;;;;;;13.00;11.38;;;;;;;8.97;88.30;97376.24;1727862;83;21056;-66
2021/11/29 06:04:24;;;;;;;16.60;12.55;;;;;;;8.97;88.32;97369.45;1716490;83;21521;-68
2021/11/29 06:06:51;;;;;;;16.60;12.35;;;;;;;9.00;88.25;97372.09;1712833;82;21007;-66
2021/11/29 06:09:18;;;;;;;;;;;;;;;8.99;88.19;97365.08;1743979;81;21090;-66
2021/11/29 06:11:44;;;;;;;17.87;13.10;;;;;;;8.98;88.17;97364.83;1719777;83;20139;-67
2021/11/29 06:14:11;;;;;;;14.00;11.53;;;;;;;8.94;88.19;97361.95;1685155;85;21618;-66
2021/11/29 06:16:38;;;;;;;17.95;13.03;;;;;;;8.95;88.21;97366.28;1660884;86;21538;-67
2021/11/29 06:19:04;;;;;;;;;;;;;;;8.96;88.13;97365.14;1742906;81;21572;-66
2021/11/29 06:21:31;;;;;;;16.93;12.15;;;;;;;8.96;88.08;97354.28;1729760;82;20144;-67
2021/11/29 06:23:57;;;;;;;16.40;13.15;;;;;;;8.90;88.16;97347.98;1725839;83;21037;-66
2021/11/29 06:26:24;;;;;;;16.00;13.15;;;;;;;8.89;88.24;97353.19;1724344;82;21038;-67
2021/11/29 06:28:51;;;;;;;15.35;12.88;;;;;;;8.91;88.21;97347.67;1727491;82;21533;-66
2021/11/29 06:31:18;;;;;;;15.53;12.33;;;;;;;8.92;88.18;97353.34;1739836;81;21059;-66
2021/11/29 06:33:45;;;;;;;16.10;12.35;;;;;;;8.94;88.13;97347.03;1725789;82;21059;-65
2021/11/29 06:36:12;;;;;;;15.98;12.60;;;;;;;8.96;88.07;97337.23;1724141;82;21568;-67
2021/11/29 06:38:38;;;;;;;16.80;13.20;;;;;;;9.01;88.01;97330.27;1706873;83;20992;-66
2021/11/29 06:41:05;;;;;;;15.55;12.75;;;;;;;9.03;87.94;97331.32;1750877;81;21085;-67
2021/11/29 06:43:31;;;;;;;16.85;13.55;;;;;;;9.04;87.87;97329.62;1748190;81;21018;-65
2021/11/29 06:45:58;;;;;;;17.02;12.30;;;;;;;9.07;87.80;97329.57;1730208;82;20996;-66
2021/11/29 06:48:25;;;;;;;17.82;12.75;;;;;;;9.07;87.75;97321.42;1725374;83;21504;-66
2021/11/29 06:50:53;;;;;;;;;;;;;;;9.08;87.70;97320.29;1728154;83;21526;-65
2021/11/29 06:53:22;;;;;;;14.83;12.75;;;;;;;9.08;87.65;97300.73;1725849;82;20130;-67
2021/11/29 06:55:48;;;;;;;16.60;13.50;;;;;;;9.04;87.71;97298.42;1727944;82;21555;-66
2021/11/29 06:58:16;;;;;;;16.90;12.80;;;;;;;9.05;87.69;97293.80;1740168;82;21051;-66
2021/11/29 07:00:43;;;;;;;17.30;13.93;;;;;;;9.06;87.62;97290.77;1735390;81;21054;-66
2021/11/29 07:03:09;;;;;;;;;;;;;;;9.07;87.54;97290.99;1728401;83;21085;-66
2021/11/29 07:05:35;;;;;;;16.05;14.20;;;;;;;9.06;87.53;97288.06;1726541;82;20122;-66
2021/11/29 07:08:02;;;;;;;19.82;14.05;;;;;;;9.03;87.58;97281.12;1725839;83;21038;-65
2021/11/29 07:10:29;;;;;;;16.02;13.53;;;;;;;9.04;87.59;97272.64;1728247;81;21047;-65
2021/11/29 07:12:56;;;;;;;16.57;14.33;;;;;;;9.06;87.56;97275.84;1726542;82;21067;-66
2021/11/29 07:15:23;;;;;;;;;;;;;;;9.11;87.51;97277.58;1731693;82;21067;-66
2021/11/29 07:17:50;;;;;;;18.85;14.75;;;;;;;9.14;87.42;97267.46;1724592;83;20101;-65
2021/11/29 07:20:17;;;;;;;18.92;15.55;;;;;;;9.11;87.51;97266.16;1729545;82;21078;-65
2021/11/29 07:22:44;;;;;;;18.12;14.63;;;;;;;9.15;87.48;97258.18;1727500;82;20993;-65
2021/11/29 07:25:11;;;;;;;16.93;14.47;;;;;;;9.17;87.44;97260.83;1741897;81;21521;-66
2021/11/29 07:27:38;;;;;;;19.80;14.55;;;;;;;9.21;87.37;97259.04;1736764;82;20960;-66
2021/11/29 07:30:06;;;;;;;18.02;14.45;;;;;;;9.26;87.28;97264.31;1729656;82;21148;-65
2021/11/29 07:32:34;;;;;;;18.67;15.05;;;;;;;9.28;87.20;97253.14;1726894;82;21039;-65
2021/11/29 07:35:02;;;;;;;19.85;15.53;;;;;;;9.31;87.10;97245.15;1725505;83;21039;-65
2021/11/29 07:37:29;;;;;;;21.37;15.75;;;;;;;9.33;87.05;97233.39;1724844;82;21018;-65
2021/11/29 07:39:56;;;;;;;20.75;14.80;;;;;;;9.37;86.98;97235.70;1721929;83;21065;-65
2021/11/29 07:42:22;;;;;;;;;;;;;;;9.40;86.96;97230.98;1724859;82;21504;-66
2021/11/29 07:44:48;;;;;;;18.90;14.73;;;;;;;9.47;86.90;97231.83;1713653;84;20162;-66
2021/11/29 07:47:15;;;;;;;20.32;15.53;;;;;;;9.46;86.90;97233.74;1718196;82;20955;-65
2021/11/29 07:49:42;;;;;;;17.50;14.43;;;;;;;9.48;86.81;97232.88;1731371;81;21553;-64
2021/11/29 07:52:09;;;;;;;18.30;14.07;;;;;;;9.51;86.68;97230.06;1691239;84;21487;-65
2021/11/29 07:54:35;;;;;;;;;;;;;;;9.57;86.55;97232.83;1693219;85;21830;-65
2021/11/29 07:57:02;;;;;;;18.30;14.28;;;;;;;9.58;86.45;97222.77;1662922;86;20458;-65
2021/11/29 07:59:29;;;;;;;18.17;14.38;;;;;;;9.54;86.46;97225.33;1725519;82;21077;-65
2021/11/29 08:01:58;;;;;;;18.02;14.10;;;;;;;9.56;86.43;97222.30;1721628;83;21038;-65
2021/11/29 08:04:24;;;;;;;17.00;14.00;;;;;;;9.58;86.32;97215.41;1729825;81;21051;-65
2021/11/29 08:06:51;;;;;;;16.95;13.55;;;;;;;9.59;86.24;97212.14;1728475;82;21519;-66
2021/11/29 08:09:17;;;;;;;;;;;;;;;9.63;86.20;97210.38;1727509;82;21521;-64
2021/11/29 08:11:43;;;;;;;19.42;14.23;;;;;;;9.63;86.16;97207.66;1722071;82;20197;-67
2021/11/29 08:14:10;;;;;;;;;;;;;;;9.61;86.27;97196.30;1721869;83;21075;-65
2021/11/29 08:16:36;;;;;;;18.32;14.10;;;;;;;9.62;86.32;97192.48;1721977;82;20146;-66
2021/11/29 08:19:05;;;;;;;19.98;13.75;;;;;;;9.59;86.44;97168.13;1724535;82;20980;-65
2021/11/29 08:21:31;;;;;;;20.10;14.90;;;;;;;9.63;86.47;97174.51;1723295;83;21053;-66
2021/11/29 08:23:57;;;;;;;18.12;12.80;;;;;;;9.69;86.49;97164.23;1723520;83;21019;-65
2021/11/29 08:26:27;;;;;;;22.67;14.75;;;;;;;9.72;86.45;97166.30;1714336;82;21074;-66
2021/11/29 08:28:53;;;;;;;19.05;14.53;;;;;;;9.75;86.44;97165.08;1716719;82;21512;-65
2021/11/29 08:31:20;;;;;;;21.07;14.43;;;;;;;9.78;86.43;97157.63;1723713;83;21666;-64
2021/11/29 08:33:48;;;;;;;26.50;16.37;;;;;;;9.82;86.37;97162.64;1723505;82;21565;-64
2021/11/29 08:36:14;;;;;;;;;;;;;;;9.86;86.34;97134.25;1736102;82;21103;-64
2021/11/29 08:38:41;;;;;;;20.10;14.85;;;;;;;9.87;86.35;97133.13;1723576;82;20127;-66
2021/11/29 08:41:07;;;;;;;20.65;14.45;;;;;;;9.84;86.48;97128.36;1726530;82;21063;-65
2021/11/29 08:43:34;;;;;;;19.90;14.25;;;;;;;9.84;86.55;97111.50;1719274;82;21001;-65
2021/11/29 08:46:00;;;;;;;18.90;14.05;;;;;;;9.85;86.58;97109.55;1716553;82;21040;-65
2021/11/29 08:48:26;;;;;;;21.12;13.60;;;;;;;9.87;86.62;97114.11;1736309;82;21525;-65
2021/11/29 08:50:55;;;;;;;21.12;14.20;;;;;;;9.90;86.63;97103.94;1737445;81;21530;-65
2021/11/29 08:53:24;;;;;;;19.70;13.93;;;;;;;9.91;86.66;97094.66;1729284;82;21003;-68
2021/11/29 08:55:51;;;;;;;22.22;14.38;;;;;;;9.90;86.72;97084.91;1702386;82;21102;-68
2021/11/29 08:58:18;;;;;;;23.60;14.80;;;;;;;9.91;86.81;97078.36;1716640;82;21025;-68
2021/11/29 09:00:49;;;;;;;18.55;13.00;;;;;;;9.91;86.88;97060.70;1720033;81;21094;-69
2021/11/29 09:03:16;;;;;;;20.05;12.95;;;;;;;9.94;86.97;97060.03;1713902;82;20979;-67
2021/11/29 09:13:00;;;;;;;17.83;13.07;;;;;;;9.99;87.26;97057.89;1800185;78;23025;-66
2021/11/29 09:15:27;;;;;;;17.30;12.30;;;;;;;9.96;87.32;97059.13;1747086;80;21055;-66
2021/11/29 09:17:53;;;;;;;17.30;13.05;;;;;;;9.99;87.36;97061.17;1734846;82;21487;-66
2021/11/29 09:20:23;;;;;;;16.57;12.90;;;;;;;10.03;87.35;97064.02;1742859;82;21132;-66
2021/11/29 09:22:50;;;;;;;19.07;13.58;;;;;;;10.05;87.37;97062.58;1697639;83;21036;-65
2021/11/29 09:25:17;;;;;;;18.48;12.98;;;;;;;10.06;87.37;97047.84;1690996;82;21118;-66
2021/11/29 09:27:44;;;;;;;19.75;13.03;;;;;;;10.09;87.34;97042.33;1700311;82;21050;-68
2021/11/29 09:30:12;;;;;;;18.02;12.60;;;;;;;10.11;87.36;97038.70;1700337;82;21076;-66
2021/11/29 09:32:39;;;;;;;21.85;13.48;;;;;;;10.12;87.36;97020.70;1686495;84;21050;-66
2021/11/29 09:35:12;;;;;;;20.05;13.30;;;;;;;10.12;87.38;97014.47;1697846;83;21074;-66
2021/11/29 09:37:39;;;;;;;15.95;12.33;;;;;;;10.13;87.40;97005.97;1685260;83;21069;-68
2021/11/29 09:40:09;;;;;;;15.13;12.23;;;;;;;10.16;87.41;97000.48;1684887;84;21043;-68
2021/11/29 09:42:37;;;;;;;20.17;12.47;;;;;;;10.19;87.42;96988.37;1693711;84;21086;-66
2021/11/29 09:45:05;;;;;;;19.40;14.23;;;;;;;10.22;87.40;96978.73;1704841;84;21054;-66
2021/11/29 09:47:32;;;;;;;18.87;13.90;;;;;;;10.24;87.39;96969.67;1700198;84;21648;-66
2021/11/29 09:49:59;;;;;;;22.25;14.55;;;;;;;10.24;87.36;96966.39;1692112;84;21597;-66
2021/11/29 09:52:26;;;;;;;20.65;14.38;;;;;;;10.26;87.33;96960.63;1689015;84;21704;-65
2021/11/29 09:54:52;;;;;;;19.30;14.68;;;;;;;10.27;87.32;96956.20;1697954;84;21730;-66
2021/11/29 09:57:20;;;;;;;19.35;14.13;;;;;;;10.32;87.33;96953.84;1696573;84;21538;-66
2021/11/29 09:59:47;;;;;;;20.68;14.68;;;;;;;10.33;87.27;96939.92;1696452;84;21105;-65
2021/11/29 10:02:14;;;;;;;18.48;14.28;;;;;;;10.37;87.19;96934.59;1683382;84;21636;-66
2021/11/29 10:04:48;;;;;;;18.10;14.00;;;;;;;10.41;87.16;96928.72;1696836;84;21644;-66
2021/11/29 10:07:29;;;;;;;22.10;15.15;;;;;;;10.47;87.09;96916.48;1703632;84;21086;-66
2021/11/29 10:09:56;;;;;;;21.50;14.25;;;;;;;10.51;87.00;96907.07;1685798;84;21121;-64
2021/11/29 10:12:27;;;;;;;21.23;14.23;;;;;;;10.54;86.97;96896.88;1691172;83;21094;-63
2021/11/29 10:15:17;;;;;;;20.70;14.78;;;;;;;10.57;86.89;96889.39;1692844;84;21162;-65
2021/11/29 10:17:46;;;;;;;20.57;15.83;;;;;;;10.60;86.82;96885.42;1690408;84;21080;-64
2021/11/29 10:20:12;;;;;;;21.27;15.03;;;;;;;10.59;86.85;96886.58;1720657;82;21082;-65
2021/11/29 10:22:39;;;;;;;20.65;15.43;;;;;;;10.57;86.89;96884.74;1735579;82;21031;-65
2021/11/29 10:25:17;;;;;;;24.98;15.18;;;;;;;10.59;86.83;96887.94;1732546;82;21119;-65
2021/11/29 10:27:44;;;;;;;22.02;16.45;;;;;;;10.60;86.72;96896.30;1711497;82;21594;-65
2021/11/29 10:30:15;;;;;;;21.35;15.90;;;;;;;10.60;86.69;96896.30;1713683;82;21075;-65
2021/11/29 10:32:44;;;;;;;21.93;16.62;;;;;;;10.61;86.68;96901.98;1694155;84;21080;-64
2021/11/29 10:35:14;;;;;;;17.73;14.53;;;;;;;10.62;86.69;96887.25;1723948;82;21063;-63
2021/11/29 10:37:44;;;;;;;21.62;15.05;;;;;;;10.65;86.66;96878.41;1721498;82;21560;-65
2021/11/29 10:40:13;;;;;;;21.57;15.50;;;;;;;10.68;86.61;96880.44;1731498;81;21024;-65
2021/11/29 10:42:40;;;;;;;22.02;15.08;;;;;;;10.71;86.57;96884.39;1733897;82;21067;-64
2021/11/29 10:45:12;;;;;;;17.32;13.15;;;;;;;10.73;86.55;96876.70;1734071;81;21041;-64
2021/11/29 10:47:39;;;;;;;18.40;13.80;;;;;;;10.76;86.55;96874.66;1711788;83;21061;-66
2021/11/29 10:50:07;;;;;;;18.10;14.23;;;;;;;10.76;86.53;96870.57;1704663;82;21032;-65
2021/11/29 10:52:35;;;;;;;18.17;13.62;;;;;;;10.77;86.48;96864.00;1706683;82;20984;-65
2021/11/29 10:55:02;;;;;;;19.87;13.35;;;;;;;10.78;86.50;96863.64;1725182;82;21071;-63
2021/11/29 10:57:31;;;;;;;18.80;13.53;;;;;;;10.81;86.44;96860.80;1701277;82;21016;-66
2021/11/29 10:59:57;;;;;;;20.72;13.68;;;;;;;10.83;86.37;96855.83;1739133;82;21130;-65
2021/11/29 11:02:27;;;;;;;17.25;13.18;;;;;;;10.84;86.29;96847.30;1721350;82;21086;-66
2021/11/29 11:05:12;;;;;;;16.77;13.03;;;;;;;10.86;86.19;96842.89;1720281;82;21146;-66
2021/11/29 11:07:39;;;;;;;18.12;13.98;;;;;;;10.85;86.14;96844.81;1714781;82;21003;-67
2021/11/29 11:10:13;;;;;;;16.80;13.32;;;;;;;10.86;86.00;96837.45;1715000;82;21055;-65
2021/11/29 11:12:40;;;;;;;17.00;12.50;;;;;;;10.85;85.97;96839.94;1724282;81;21029;-65
2021/11/29 11:15:10;;;;;;;;;;;;;;;10.82;85.92;96831.10;1750617;81;21039;-64
2021/11/29 11:17:36;;;;;;;15.88;12.18;;;;;;;10.83;85.90;96825.89;1752714;81;20110;-66
2021/11/29 11:20:13;;;;;;;15.48;11.95;;;;;;;10.80;85.95;96822.50;1747164;80;21058;-66
2021/11/29 11:22:47;;;;;;;17.25;12.18;;;;;;;10.84;85.89;96815.24;1724485;81;21019;-65
2021/11/29 11:25:19;;;;;;;19.07;12.07;;;;;;;10.81;85.77;96799.58;1721185;82;21521;-65
2021/11/29 11:28:03;;;;;;;18.27;12.18;;;;;;;10.87;85.64;96800.94;1753919;81;21914;-65
2021/11/29 11:30:33;;;;;;;15.30;11.75;;;;;;;10.86;85.55;96787.90;1745042;81;21019;-65
2021/11/29 11:33:14;;;;;;;14.70;11.97;;;;;;;10.85;85.47;96784.15;1732171;81;21562;-66
2021/11/29 11:35:45;;;;;;;14.65;12.25;;;;;;;10.84;85.40;96776.55;1753477;81;21043;-66
2021/11/29 11:39:31;;;;;;;15.90;12.13;;;;;;;10.90;85.32;96759.42;1800287;78;22844;-66
2021/11/29 11:41:57;;;;;;;17.50;12.65;;;;;;;10.84;85.37;96746.61;1730166;82;21007;-66
2021/11/29 11:44:25;;;;;;;16.17;12.28;;;;;;;10.84;85.39;96739.05;1743239;82;21667;-66
2021/11/29 11:46:54;;;;;;;18.77;12.85;;;;;;;10.88;85.26;96724.38;1740315;82;21475;-67